Time;durP1;ratioP1;P1;durP2;ratioP2;P2;SDS_P1;SDS_P2;PMS_P1;PMS_P2;Temp;Humidity;BMP_temperature;BMP_pressure;BME280_temperature;BME280_humidity;BME280_pressure;Samples;Min_cycle;Max_cycle;Signal;HPM_P1;HPM_P2
2023/09/08 00:01:04;;;;;;;14.38;10.00;;;15.70;99.90;;;;;;4969582;28;20047;-61
2023/09/08 00:03:31;;;;;;;14.32;6.68;;;15.60;99.90;;;;;;4972622;28;20066;-61
2023/09/08 00:05:58;;;;;;;23.23;7.47;;;15.50;99.90;;;;;;4943555;28;20043;-61
2023/09/08 00:08:25;;;;;;;17.20;10.15;;;15.40;99.90;;;;;;4946150;28;20055;-61
2023/09/08 00:10:52;;;;;;;17.10;9.48;;;15.30;99.90;;;;;;4969548;28;20038;-61
2023/09/08 00:13:19;;;;;;;15.77;9.57;;;15.20;99.90;;;;;;4955450;28;20039;-61
2023/09/08 00:15:45;;;;;;;18.27;10.68;;;15.30;99.90;;;;;;4972528;28;20054;-60
2023/09/08 00:18:12;;;;;;;17.15;11.07;;;15.30;99.90;;;;;;4960499;28;20136;-59
2023/09/08 00:20:39;;;;;;;19.25;10.95;;;15.40;99.90;;;;;;4961186;28;20058;-61
2023/09/08 00:23:06;;;;;;;15.10;11.65;;;15.40;99.90;;;;;;4969657;28;20046;-60
2023/09/08 00:25:34;;;;;;;16.52;11.52;;;15.50;99.90;;;;;;4972301;28;20050;-60
2023/09/08 00:28:01;;;;;;;19.55;11.32;;;15.50;99.90;;;;;;4970831;28;20045;-60
2023/09/08 00:30:27;;;;;;;18.65;12.00;;;15.60;99.90;;;;;;4962157;28;20034;-61
2023/09/08 00:32:54;;;;;;;16.40;11.75;;;15.50;99.90;;;;;;4972578;28;20126;-60
2023/09/08 00:35:22;;;;;;;17.63;11.43;;;15.60;99.90;;;;;;4972182;28;20043;-60
2023/09/08 00:37:48;;;;;;;15.00;11.30;;;15.60;99.90;;;;;;4955479;28;20116;-60
2023/09/08 00:40:16;;;;;;;15.57;11.23;;;15.60;99.90;;;;;;4951809;28;20050;-60
2023/09/08 00:42:43;;;;;;;15.00;11.35;;;15.60;99.90;;;;;;4955524;28;20035;-60
2023/09/08 00:45:10;;;;;;;16.05;11.20;;;15.60;99.90;;;;;;4972648;28;20047;-60
2023/09/08 00:47:37;;;;;;;19.15;11.82;;;15.60;99.90;;;;;;4966021;28;20055;-60
2023/09/08 00:50:05;;;;;;;14.82;10.82;;;15.60;99.90;;;;;;4955178;28;20047;-60
2023/09/08 00:52:33;;;;;;;17.50;11.30;;;15.60;99.90;;;;;;4946682;28;20052;-58
2023/09/08 00:55:00;;;;;;;18.77;11.15;;;15.60;99.90;;;;;;4950937;28;20047;-61
2023/09/08 00:57:27;;;;;;;11.07;7.97;;;15.60;99.90;;;;;;4952080;28;20053;-60
2023/09/08 00:59:55;;;;;;;11.07;7.65;;;15.40;99.90;;;;;;4966529;28;20039;-60
2023/09/08 01:02:22;;;;;;;14.38;8.48;;;15.20;99.90;;;;;;4960001;28;20594;-59
2023/09/08 01:04:50;;;;;;;14.30;8.23;;;15.10;99.90;;;;;;4956517;28;20487;-59
2023/09/08 01:07:19;;;;;;;13.40;9.88;;;15.00;99.90;;;;;;4953787;28;20057;-60
2023/09/08 01:09:47;;;;;;;13.05;9.50;;;14.80;99.90;;;;;;4971220;28;20067;-59
2023/09/08 01:12:15;;;;;;;13.18;9.90;;;14.60;99.90;;;;;;4956302;28;20043;-59
2023/09/08 01:14:42;;;;;;;19.15;10.55;;;14.60;99.90;;;;;;4957763;28;20047;-61
2023/09/08 01:17:09;;;;;;;14.77;10.15;;;14.50;99.90;;;;;;4957314;28;20515;-61
2023/09/08 01:19:36;;;;;;;14.15;10.50;;;14.50;99.90;;;;;;4973139;28;20035;-60
2023/09/08 01:22:03;;;;;;;15.85;10.75;;;14.50;99.90;;;;;;4958070;28;20065;-61
2023/09/08 01:25:03;;;;;;;17.73;10.95;;;14.40;99.90;;;;;;4960640;28;20047;-59
2023/09/08 01:27:33;;;;;;;19.33;11.20;;;14.40;99.90;;;;;;4955523;28;20047;-60
2023/09/08 01:30:02;;;;;;;13.52;10.00;;;14.50;99.90;;;;;;4952386;29;20036;-61
2023/09/08 01:32:32;;;;;;;19.63;12.15;;;14.40;99.90;;;;;;4946066;28;20047;-61
2023/09/08 01:35:00;;;;;;;13.07;9.82;;;14.50;99.90;;;;;;4958368;28;20522;-61
2023/09/08 01:37:27;;;;;;;13.10;10.05;;;14.40;99.90;;;;;;4954611;28;20507;-61
2023/09/08 01:39:54;;;;;;;16.55;9.98;;;14.40;99.90;;;;;;4974057;28;20428;-58
2023/09/08 01:42:21;;;;;;;14.45;9.02;;;14.40;99.90;;;;;;4958202;28;20061;-61
2023/09/08 01:44:48;;;;;;;15.35;9.93;;;14.40;99.90;;;;;;4967396;28;20038;-61
2023/09/08 01:47:15;;;;;;;;;;;14.30;99.90;;;;;;4973506;28;20034;-59
2023/09/08 01:49:43;;;;;;;12.85;8.90;;;14.30;99.90;;;;;;4974906;28;19929;-61
2023/09/08 01:52:10;;;;;;;17.08;9.25;;;14.20;99.90;;;;;;4956864;28;20042;-61
2023/09/08 01:54:37;;;;;;;11.65;9.10;;;14.20;99.90;;;;;;4955417;28;20044;-60
2023/09/08 01:57:04;;;;;;;11.68;8.65;;;14.10;99.90;;;;;;4956661;28;20514;-60
2023/09/08 01:59:31;;;;;;;12.68;9.05;;;14.10;99.90;;;;;;4956250;28;20126;-61
2023/09/08 02:01:57;;;;;;;14.70;9.02;;;14.20;99.90;;;;;;4957665;28;20389;-60
2023/09/08 02:04:24;;;;;;;16.48;10.07;;;14.20;99.90;;;;;;4957131;28;20050;-59
2023/09/08 02:06:51;;;;;;;20.58;9.27;;;14.20;99.90;;;;;;4970170;28;20047;-60
2023/09/08 02:09:19;;;;;;;14.63;9.15;;;14.40;99.90;;;;;;4956775;28;20063;-61
2023/09/08 02:11:46;;;;;;;8.77;7.03;;;14.40;99.90;;;;;;4949393;28;20039;-61
2023/09/08 02:14:13;;;;;;;8.38;6.07;;;14.40;99.90;;;;;;4957116;28;20043;-61
2023/09/08 02:16:40;;;;;;;13.50;8.43;;;14.30;99.90;;;;;;4956495;28;20813;-60
2023/09/08 02:19:07;;;;;;;12.93;8.50;;;14.10;99.90;;;;;;4958387;28;20464;-58
2023/09/08 02:21:34;;;;;;;11.27;8.65;;;14.00;99.90;;;;;;4954874;28;20472;-61
2023/09/08 02:24:01;;;;;;;13.63;9.20;;;14.00;99.90;;;;;;4954236;28;20479;-60
2023/09/08 02:26:28;;;;;;;17.38;9.27;;;14.00;99.90;;;;;;4953541;28;20050;-61
2023/09/08 02:28:54;;;;;;;12.90;9.07;;;14.00;99.90;;;;;;4955018;28;20117;-58
2023/09/08 02:31:22;;;;;;;13.02;8.82;;;14.00;99.90;;;;;;4956135;28;20070;-60
2023/09/08 02:33:49;;;;;;;12.40;9.20;;;13.90;99.90;;;;;;4956281;28;20043;-61
2023/09/08 02:36:15;;;;;;;13.02;8.32;;;13.90;99.90;;;;;;4966773;28;20039;-61
2023/09/08 02:38:42;;;;;;;14.02;9.32;;;13.90;99.90;;;;;;4952933;28;20043;-61
2023/09/08 02:41:09;;;;;;;13.25;8.75;;;13.80;99.90;;;;;;4954158;29;20134;-61
2023/09/08 02:43:36;;;;;;;12.30;9.50;;;13.90;99.90;;;;;;4957160;28;20491;-60
2023/09/08 02:46:06;;;;;;;15.77;9.13;;;13.80;99.90;;;;;;4956054;28;20566;-61
2023/09/08 02:48:33;;;;;;;13.20;9.25;;;13.80;99.90;;;;;;4953185;28;20487;-61
2023/09/08 02:51:00;;;;;;;;;;;13.80;99.90;;;;;;4954006;28;20402;-61
2023/09/08 02:53:28;;;;;;;14.98;8.65;;;13.90;99.90;;;;;;4965728;28;20344;-59
2023/09/08 02:55:58;;;;;;;11.93;8.52;;;13.90;99.90;;;;;;4956763;28;20439;-61
2023/09/08 02:58:25;;;;;;;13.48;8.98;;;14.00;99.90;;;;;;4956167;28;20051;-60
2023/09/08 03:00:52;;;;;;;16.60;8.88;;;14.00;99.90;;;;;;4962901;28;20031;-59
2023/09/08 03:03:21;;;;;;;11.40;8.23;;;13.90;99.90;;;;;;4966247;28;20116;-61
2023/09/08 03:05:53;;;;;;;12.63;9.07;;;14.00;99.90;;;;;;4956868;28;20546;-60
2023/09/08 03:08:23;;;;;;;11.93;8.10;;;13.80;99.90;;;;;;4956016;28;20042;-59
2023/09/08 03:10:50;;;;;;;13.27;8.50;;;13.90;99.90;;;;;;4958312;28;20047;-61
2023/09/08 03:13:17;;;;;;;13.55;8.18;;;13.90;99.90;;;;;;4953031;29;20514;-61
2023/09/08 03:15:43;;;;;;;12.90;8.65;;;13.90;99.90;;;;;;4971513;28;20067;-61
2023/09/08 03:18:10;;;;;;;14.15;9.15;;;13.80;99.90;;;;;;4952322;29;20043;-59
2023/09/08 03:20:40;;;;;;;13.88;9.45;;;13.80;99.90;;;;;;4952519;28;20050;-61
2023/09/08 03:23:07;;;;;;;13.23;9.00;;;13.80;99.90;;;;;;4952829;29;20050;-60
2023/09/08 03:25:33;;;;;;;13.23;8.32;;;13.80;99.90;;;;;;4958827;28;20054;-60
2023/09/08 03:28:00;;;;;;;12.23;8.70;;;13.80;99.90;;;;;;4955161;28;20053;-61
2023/09/08 03:30:27;;;;;;;14.80;8.75;;;13.80;99.90;;;;;;4954548;28;20141;-61
2023/09/08 03:32:54;;;;;;;13.55;8.73;;;13.70;99.90;;;;;;4955393;28;20130;-61
2023/09/08 03:35:21;;;;;;;12.98;8.45;;;13.60;99.90;;;;;;4964232;28;20041;-59
2023/09/08 03:37:49;;;;;;;14.52;8.88;;;13.60;99.90;;;;;;4955020;28;20047;-60
2023/09/08 03:40:15;;;;;;;11.93;8.88;;;13.70;99.90;;;;;;4955725;28;20042;-60
2023/09/08 03:42:43;;;;;;;12.10;8.82;;;13.60;99.90;;;;;;4962766;28;20765;-59
2023/09/08 03:45:10;;;;;;;11.52;8.32;;;13.70;99.90;;;;;;4953410;28;20043;-59
2023/09/08 03:47:37;;;;;;;;;;;13.60;99.90;;;;;;4956202;28;20468;-60
2023/09/08 03:50:06;;;;;;;15.40;9.20;;;13.60;99.90;;;;;;4952198;29;19923;-61
2023/09/08 03:52:33;;;;;;;16.67;9.63;;;13.60;99.90;;;;;;4931044;29;20311;-61
2023/09/08 03:54:59;;;;;;;13.82;9.30;;;13.60;99.90;;;;;;4951285;28;20133;-60
2023/09/08 03:57:26;;;;;;;14.07;8.48;;;13.50;99.90;;;;;;4947527;28;20043;-60
2023/09/08 03:59:53;;;;;;;18.08;9.10;;;13.50;99.90;;;;;;4954935;28;20047;-61
2023/09/08 04:02:20;;;;;;;;;;;13.50;99.90;;;;;;4956261;28;20134;-61
2023/09/08 04:04:47;;;;;;;13.70;8.23;;;13.50;99.90;;;;;;4956031;28;19923;-60
2023/09/08 04:07:14;;;;;;;16.30;9.30;;;13.50;99.90;;;;;;4966733;28;20404;-61
2023/09/08 04:09:42;;;;;;;;;;;13.50;99.90;;;;;;4955193;28;20070;-61
2023/09/08 04:12:10;;;;;;;13.20;9.35;;;13.40;99.90;;;;;;4972054;28;20290;-60
2023/09/08 04:14:37;;;;;;;13.48;8.82;;;13.40;99.90;;;;;;4953920;28;20051;-59
2023/09/08 04:17:04;;;;;;;12.93;9.68;;;13.50;99.90;;;;;;4955268;28;20053;-59
2023/09/08 04:19:32;;;;;;;11.80;8.80;;;13.40;99.90;;;;;;4951212;28;20568;-58
2023/09/08 04:21:59;;;;;;;11.57;8.73;;;13.40;99.90;;;;;;4954165;28;20035;-60
2023/09/08 04:24:25;;;;;;;14.05;9.27;;;13.50;99.90;;;;;;4947632;29;20066;-61
2023/09/08 04:26:52;;;;;;;14.98;9.07;;;13.40;99.90;;;;;;4966680;28;20440;-61
2023/09/08 04:29:19;;;;;;;14.63;10.63;;;13.50;99.90;;;;;;4952620;28;20134;-60
2023/09/08 04:31:46;;;;;;;15.68;9.07;;;13.50;99.90;;;;;;4947323;28;20086;-61
2023/09/08 04:34:13;;;;;;;14.90;9.90;;;13.40;99.90;;;;;;4970280;28;20494;-59
2023/09/08 04:36:39;;;;;;;15.35;10.18;;;13.50;99.90;;;;;;4954785;28;20057;-59
2023/09/08 04:39:10;;;;;;;15.30;9.48;;;13.50;99.90;;;;;;4952065;28;20043;-61
2023/09/08 04:41:38;;;;;;;14.10;9.35;;;13.50;99.90;;;;;;4951946;28;20070;-60
2023/09/08 04:44:06;;;;;;;15.02;9.43;;;13.50;99.90;;;;;;4955009;28;20495;-61
2023/09/08 04:46:35;;;;;;;12.20;7.50;;;13.50;99.90;;;;;;4950917;28;20423;-61
2023/09/08 04:49:02;;;;;;;10.98;7.57;;;13.40;99.90;;;;;;4958618;28;20134;-60
2023/09/08 04:51:29;;;;;;;11.65;8.25;;;13.30;99.90;;;;;;4968218;28;20460;-61
2023/09/08 04:53:56;;;;;;;15.85;8.90;;;13.30;99.90;;;;;;4951483;28;20509;-60
2023/09/08 04:56:23;;;;;;;17.05;9.48;;;13.30;99.90;;;;;;4958122;28;20035;-59
2023/09/08 04:58:50;;;;;;;14.65;9.02;;;13.40;99.90;;;;;;4955615;28;20059;-60
2023/09/08 05:01:17;;;;;;;12.50;9.32;;;13.40;99.90;;;;;;4957930;28;20043;-61
2023/09/08 05:03:43;;;;;;;17.23;10.52;;;13.30;99.90;;;;;;4957030;28;20046;-59
2023/09/08 05:06:10;;;;;;;20.52;11.20;;;13.40;99.90;;;;;;4958171;28;20043;-61
2023/09/08 05:08:37;;;;;;;17.45;10.25;;;13.50;99.90;;;;;;4966628;28;20045;-61
2023/09/08 05:11:05;;;;;;;18.27;10.05;;;13.60;99.90;;;;;;4955403;28;20050;-60
2023/09/08 05:13:32;;;;;;;18.40;11.13;;;13.70;99.90;;;;;;4974603;23;20508;-54
2023/09/08 05:16:11;;;;;;;14.82;10.55;;;13.70;99.90;;;;;;4995296;28;20042;-53
2023/09/08 05:18:43;;;;;;;12.35;9.07;;;13.70;99.90;;;;;;5008071;23;20050;-53
2023/09/08 05:21:10;;;;;;;14.43;9.43;;;13.80;99.90;;;;;;4974484;28;20055;-53
2023/09/08 05:23:37;;;;;;;13.80;9.23;;;13.70;99.90;;;;;;4989292;28;20395;-53
2023/09/08 05:26:04;;;;;;;14.82;8.88;;;13.60;99.90;;;;;;4972484;28;20050;-53
2023/09/08 05:28:32;;;;;;;14.88;9.00;;;13.50;99.90;;;;;;4978590;28;20074;-54
2023/09/08 05:31:02;;;;;;;15.10;8.60;;;13.50;99.90;;;;;;4986829;28;20077;-53
2023/09/08 05:33:29;;;;;;;;;;;13.60;99.90;;;;;;4994210;28;20062;-53
2023/09/08 05:35:56;;;;;;;17.58;10.60;;;13.70;99.90;;;;;;4985837;28;20041;-54
2023/09/08 05:38:25;;;;;;;19.70;10.10;;;13.80;99.90;;;;;;4991112;28;20442;-56
2023/09/08 05:40:52;;;;;;;18.55;10.65;;;13.90;99.90;;;;;;4998984;28;20060;-53
2023/09/08 05:43:19;;;;;;;18.75;11.07;;;14.00;99.90;;;;;;5030108;28;20080;-55
2023/09/08 05:45:46;;;;;;;18.27;11.50;;;14.10;99.90;;;;;;5007204;28;20049;-54
2023/09/08 05:48:12;;;;;;;17.88;11.57;;;14.30;99.90;;;;;;5006218;28;20046;-54
2023/09/08 05:50:39;;;;;;;19.63;10.27;;;14.40;99.90;;;;;;5007271;28;20049;-53
2023/09/08 05:53:06;;;;;;;18.80;11.95;;;14.50;99.90;;;;;;5005627;28;20038;-53
2023/09/08 05:55:33;;;;;;;18.55;11.20;;;14.60;99.90;;;;;;5004694;28;20037;-57
2023/09/08 05:58:00;;;;;;;19.15;12.13;;;14.60;99.90;;;;;;5029835;28;20140;-55
2023/09/08 06:00:27;;;;;;;16.27;11.57;;;14.70;99.90;;;;;;5020738;28;20070;-55
2023/09/08 06:02:54;;;;;;;16.08;11.60;;;14.70;99.90;;;;;;5014153;28;20057;-53
2023/09/08 06:05:21;;;;;;;;;;;14.70;99.90;;;;;;5029823;28;20414;-53
2023/09/08 06:07:48;;;;;;;14.60;10.18;;;14.80;99.90;;;;;;5008092;28;19928;-54
2023/09/08 06:10:32;;;;;;;17.45;11.07;;;14.90;99.90;;;;;;5006438;28;20132;-54
2023/09/08 06:12:59;;;;;;;22.88;11.57;;;15.00;99.90;;;;;;5005779;28;20044;-54
2023/09/08 06:15:26;;;;;;;21.45;10.70;;;15.00;99.90;;;;;;5009031;28;20409;-54
2023/09/08 06:17:52;;;;;;;16.67;10.93;;;15.10;99.90;;;;;;5015931;28;20045;-54
2023/09/08 06:20:19;;;;;;;19.77;11.02;;;15.20;99.90;;;;;;5008774;28;20073;-54
2023/09/08 06:22:47;;;;;;;;;;;15.20;99.90;;;;;;5006498;28;20069;-53
2023/09/08 06:25:14;;;;;;;15.35;10.05;;;15.40;99.90;;;;;;5024833;28;19921;-53
2023/09/08 06:27:40;;;;;;;17.65;10.77;;;15.50;99.90;;;;;;5012125;28;20042;-56
2023/09/08 06:30:08;;;;;;;18.23;10.32;;;15.50;99.90;;;;;;5023701;28;20038;-54
2023/09/08 06:32:35;;;;;;;;;;;15.60;99.90;;;;;;5006552;28;20041;-56
2023/09/08 06:35:02;;;;;;;15.20;10.20;;;15.80;99.90;;;;;;5004574;28;20281;-53
2023/09/08 06:37:29;;;;;;;14.48;9.70;;;15.90;99.90;;;;;;5010511;28;20037;-54
2023/09/08 06:39:56;;;;;;;16.73;9.15;;;16.00;99.90;;;;;;5012535;28;20502;-53
2023/09/08 06:42:22;;;;;;;14.93;9.55;;;16.10;99.90;;;;;;5021705;28;20061;-53
2023/09/08 06:44:56;;;;;;;14.10;9.55;;;16.20;99.90;;;;;;5005590;28;20045;-53
2023/09/08 06:47:23;;;;;;;17.02;9.93;;;16.20;99.90;;;;;;5026217;28;20120;-53
2023/09/08 06:49:50;;;;;;;16.13;10.60;;;16.30;99.90;;;;;;5025808;28;20498;-54
2023/09/08 06:52:17;;;;;;;;;;;16.40;99.90;;;;;;5012368;28;20037;-55
2023/09/08 06:54:47;;;;;;;14.50;9.68;;;16.50;99.90;;;;;;5004817;28;19926;-57
2023/09/08 06:57:14;;;;;;;17.38;10.77;;;16.60;99.90;;;;;;5004874;28;20064;-53
2023/09/08 06:59:40;;;;;;;16.58;10.30;;;16.70;99.90;;;;;;5005496;28;20044;-54
2023/09/08 07:02:07;;;;;;;17.05;10.80;;;16.80;99.90;;;;;;5004053;28;20442;-54
2023/09/08 07:04:35;;;;;;;17.13;10.20;;;16.90;99.90;;;;;;5006280;28;20045;-53
2023/09/08 07:07:06;;;;;;;;;;;17.00;99.90;;;;;;5007779;28;20034;-54
2023/09/08 07:09:36;;;;;;;13.07;9.30;;;17.10;99.90;;;;;;5006921;28;20011;-54
2023/09/08 07:12:05;;;;;;;13.93;9.38;;;17.20;99.90;;;;;;5006816;28;20041;-53
2023/09/08 07:14:32;;;;;;;16.38;9.35;;;17.30;99.90;;;;;;5011989;28;20040;-56
2023/09/08 07:16:59;;;;;;;18.88;9.55;;;17.40;99.90;;;;;;5008553;28;20145;-54
2023/09/08 07:19:27;;;;;;;13.80;9.55;;;17.50;99.90;;;;;;5005953;28;20125;-54
2023/09/08 07:21:54;;;;;;;13.05;9.52;;;17.60;99.90;;;;;;5013175;28;20034;-54
2023/09/08 07:24:21;;;;;;;;;;;17.70;99.90;;;;;;5005892;28;20042;-54
2023/09/08 07:26:48;;;;;;;13.57;8.50;;;17.80;99.90;;;;;;5006977;28;20385;-53
2023/09/08 07:29:15;;;;;;;;;;;17.90;99.90;;;;;;5023428;28;20045;-54
2023/09/08 07:31:42;;;;;;;13.15;9.32;;;18.00;99.90;;;;;;5024059;28;19943;-54
2023/09/08 07:34:09;;;;;;;12.40;9.05;;;18.10;99.90;;;;;;5006564;28;20049;-56
2023/09/08 07:36:36;;;;;;;14.05;9.88;;;18.20;99.90;;;;;;5004844;28;20037;-53
2023/09/08 07:39:03;;;;;;;;;;;18.30;99.90;;;;;;5032134;28;20401;-53
2023/09/08 07:41:30;;;;;;;16.17;9.60;;;18.40;99.90;;;;;;5009621;28;20011;-53
2023/09/08 07:43:57;;;;;;;16.83;9.35;;;18.60;99.90;;;;;;5012034;28;20401;-53
2023/09/08 07:46:25;;;;;;;16.70;9.52;;;18.70;99.90;;;;;;5001843;28;20045;-54
2023/09/08 07:48:52;;;;;;;16.05;9.43;;;18.70;99.90;;;;;;5022662;28;20559;-53
2023/09/08 07:51:19;;;;;;;;;;;18.80;99.90;;;;;;5025937;28;20037;-54
2023/09/08 07:53:46;;;;;;;14.90;8.60;;;19.00;99.90;;;;;;5024159;28;19921;-53
2023/09/08 07:56:12;;;;;;;11.38;8.52;;;19.10;99.90;;;;;;5023091;28;20452;-53
2023/09/08 07:58:39;;;;;;;11.88;8.73;;;19.10;99.90;;;;;;5031330;28;20050;-54
2023/09/08 08:01:06;;;;;;;15.18;8.48;;;19.30;99.90;;;;;;5003923;28;20037;-54
2023/09/08 08:03:35;;;;;;;14.02;8.85;;;19.40;99.90;;;;;;5032072;28;20455;-54
2023/09/08 08:06:02;;;;;;;13.98;9.65;;;19.50;99.90;;;;;;5019488;28;20045;-55
2023/09/08 08:08:30;;;;;;;15.95;8.93;;;19.50;99.90;;;;;;5020033;28;20073;-53
2023/09/08 08:10:57;;;;;;;19.17;8.82;;;19.50;99.90;;;;;;5024209;28;20053;-54
2023/09/08 08:13:24;;;;;;;14.30;8.77;;;19.70;99.90;;;;;;5017498;28;20075;-53
2023/09/08 08:15:51;;;;;;;11.05;8.73;;;19.80;99.90;;;;;;5020976;28;20038;-56
2023/09/08 08:18:18;;;;;;;12.13;8.63;;;19.80;99.90;;;;;;5019602;28;20038;-54
2023/09/08 08:20:45;;;;;;;10.35;7.80;;;19.90;99.90;;;;;;5014105;28;20100;-56
2023/09/08 08:23:12;;;;;;;;;;;20.00;99.90;;;;;;5018850;28;20107;-53
2023/09/08 08:25:39;;;;;;;11.57;8.00;;;20.20;99.90;;;;;;5020142;28;19921;-53
2023/09/08 08:28:05;;;;;;;12.95;8.20;;;20.30;99.90;;;;;;5020379;28;20048;-53
2023/09/08 08:30:32;;;;;;;11.18;8.00;;;20.50;99.90;;;;;;5031204;28;20042;-56
2023/09/08 08:32:59;;;;;;;;;;;20.60;99.90;;;;;;5020334;28;20045;-53
2023/09/08 08:35:26;;;;;;;12.77;7.93;;;20.70;99.90;;;;;;5020141;28;19956;-56
2023/09/08 08:37:53;;;;;;;10.38;7.80;;;20.80;99.90;;;;;;5022364;28;20049;-55
2023/09/08 08:40:20;;;;;;;10.75;8.10;;;21.00;99.90;;;;;;5018071;28;20061;-53
2023/09/08 08:42:47;;;;;;;16.52;8.38;;;20.90;99.90;;;;;;5020349;28;20074;-54
2023/09/08 08:45:19;;;;;;;13.18;7.82;;;21.00;99.90;;;;;;5022213;28;20046;-53
2023/09/08 08:47:48;;;;;;;12.68;7.90;;;21.00;99.90;;;;;;5025773;28;20111;-56
2023/09/08 08:50:17;;;;;;;11.05;8.40;;;21.00;99.90;;;;;;5022985;28;20224;-53
2023/09/08 08:52:44;;;;;;;11.45;8.05;;;21.20;99.90;;;;;;5019601;28;20044;-54
2023/09/08 08:55:11;;;;;;;;;;;21.30;99.90;;;;;;5012330;28;20034;-53
2023/09/08 08:57:39;;;;;;;13.70;7.95;;;21.40;99.90;;;;;;5019912;28;19921;-54
2023/09/08 09:00:11;;;;;;;13.15;8.05;;;21.60;99.90;;;;;;5024635;28;20045;-56
2023/09/08 09:02:42;;;;;;;11.02;7.90;;;21.70;99.90;;;;;;5019202;28;20058;-54
2023/09/08 09:05:13;;;;;;;13.88;8.07;;;21.90;99.90;;;;;;5023597;28;20046;-53
2023/09/08 09:07:44;;;;;;;11.32;8.07;;;22.00;99.90;;;;;;5024177;28;20049;-54
2023/09/08 09:10:11;;;;;;;11.73;7.72;;;22.10;99.90;;;;;;5025086;28;20072;-53
2023/09/08 09:12:38;;;;;;;14.00;8.20;;;22.30;99.90;;;;;;5015165;28;20049;-57
2023/09/08 09:15:06;;;;;;;14.70;8.45;;;22.30;99.90;;;;;;5022671;28;20048;-54
2023/09/08 09:17:34;;;;;;;14.18;8.27;;;22.40;99.90;;;;;;5001598;28;20042;-54
2023/09/08 09:20:20;;;;;;;11.23;7.43;;;22.40;99.90;;;;;;5017792;28;20084;-54
2023/09/08 09:22:49;;;;;;;9.70;7.53;;;22.50;99.90;;;;;;5022945;28;20045;-55
2023/09/08 09:25:29;;;;;;;9.77;7.72;;;22.70;99.90;;;;;;5025220;28;20045;-53
2023/09/08 09:28:02;;;;;;;12.82;7.40;;;22.80;99.90;;;;;;5022178;28;20099;-54
2023/09/08 09:30:47;;;;;;;9.23;7.95;;;22.90;99.90;;;;;;5028443;28;20041;-54
2023/09/08 09:33:14;;;;;;;9.88;8.15;;;22.90;99.90;;;;;;5024471;28;20405;-53
2023/09/08 09:35:52;;;;;;;12.05;8.00;;;23.00;99.90;;;;;;5034979;28;20502;-54
2023/09/08 09:38:20;;;;;;;9.73;7.40;;;22.90;99.90;;;;;;5025477;28;20049;-53
2023/09/08 09:40:48;;;;;;;9.68;7.40;;;23.10;99.90;;;;;;5024625;28;20038;-53
2023/09/08 09:43:16;;;;;;;12.40;8.10;;;23.30;99.90;;;;;;5028109;28;20125;-53
2023/09/08 09:45:44;;;;;;;10.73;7.75;;;23.30;99.90;;;;;;5023339;28;20380;-54
2023/09/08 09:48:12;;;;;;;12.40;8.35;;;23.50;99.90;;;;;;5019729;28;20572;-55
2023/09/08 09:50:40;;;;;;;10.82;8.30;;;23.80;99.90;;;;;;5023083;28;20132;-53
2023/09/08 09:53:11;;;;;;;11.85;8.10;;;23.90;99.90;;;;;;5033230;28;20429;-54
2023/09/08 09:55:39;;;;;;;10.45;7.82;;;24.00;99.90;;;;;;5027485;28;20038;-56
2023/09/08 09:58:07;;;;;;;9.18;7.68;;;24.00;99.90;;;;;;5027632;28;20045;-56
2023/09/08 10:00:35;;;;;;;9.68;7.45;;;24.00;99.90;;;;;;5021854;28;20047;-54
2023/09/08 10:03:04;;;;;;;15.85;8.27;;;24.20;99.90;;;;;;5013397;28;20053;-53
2023/09/08 10:05:31;;;;;;;8.80;7.38;;;24.30;99.90;;;;;;5027531;28;20053;-55
2023/09/08 10:07:58;;;;;;;11.50;8.50;;;24.30;99.90;;;;;;5032421;28;20048;-54
2023/09/08 10:10:30;;;;;;;10.40;7.40;;;24.40;99.90;;;;;;5022534;28;20311;-54
2023/09/08 10:13:05;;;;;;;12.13;8.52;;;24.60;99.90;;;;;;5022368;28;20413;-54
2023/09/08 10:15:34;;;;;;;11.10;8.10;;;24.60;99.90;;;;;;5022592;28;20092;-53
2023/09/08 10:18:05;;;;;;;9.20;7.70;;;24.60;99.90;;;;;;5023222;28;20441;-53
2023/09/08 10:20:34;;;;;;;11.30;8.35;;;24.60;99.90;;;;;;5022369;28;20048;-53
2023/09/08 10:23:42;;;;;;;10.43;7.68;;;24.60;99.90;;;;;;5024414;28;20406;-53
2023/09/08 10:26:14;;;;;;;13.32;8.02;;;24.60;99.90;;;;;;5019382;28;20373;-53
2023/09/08 10:28:41;;;;;;;8.07;7.07;;;24.50;99.90;;;;;;5017783;28;20041;-53
2023/09/08 10:31:09;;;;;;;9.18;7.28;;;24.40;99.90;;;;;;5014242;28;20069;-54
2023/09/08 10:33:41;;;;;;;9.85;7.97;;;24.30;99.90;;;;;;5019090;28;20049;-56
2023/09/08 10:36:09;;;;;;;10.77;7.70;;;24.40;99.90;;;;;;5024688;28;20059;-53
2023/09/08 10:38:36;;;;;;;8.70;6.75;;;24.40;99.90;;;;;;5030737;28;20049;-53
2023/09/08 10:41:15;;;;;;;10.73;8.07;;;24.50;99.90;;;;;;5032335;28;20030;-54
2023/09/08 10:43:46;;;;;;;9.48;6.70;;;24.50;99.90;;;;;;5027671;28;20033;-55
2023/09/08 10:46:25;;;;;;;8.32;7.00;;;24.60;99.90;;;;;;5023626;28;20052;-54
2023/09/08 10:49:03;;;;;;;10.68;7.40;;;24.60;99.90;;;;;;5028306;28;20397;-55
2023/09/08 10:51:30;;;;;;;9.23;7.50;;;24.80;99.90;;;;;;5026905;28;20104;-53
2023/09/08 10:53:58;;;;;;;8.52;7.07;;;25.00;99.90;;;;;;5026496;28;20058;-54
2023/09/08 10:56:48;;;;;;;9.70;7.35;;;25.10;99.90;;;;;;5025343;28;20397;-53
2023/09/08 10:59:15;;;;;;;11.10;7.20;;;25.20;99.90;;;;;;5025902;28;20133;-53
2023/09/08 11:01:42;;;;;;;8.50;7.20;;;25.40;99.90;;;;;;5023547;28;20042;-53
2023/09/08 11:04:10;;;;;;;;;;;25.40;99.90;;;;;;5021722;28;20038;-53
2023/09/08 11:06:37;;;;;;;9.30;7.22;;;25.40;99.90;;;;;;5020020;28;19920;-53
2023/09/08 11:09:07;;;;;;;10.55;7.65;;;25.50;99.90;;;;;;5024590;28;20061;-54
2023/09/08 11:11:36;;;;;;;9.38;7.35;;;25.60;99.90;;;;;;5008171;28;20042;-54
2023/09/08 11:14:03;;;;;;;9.57;7.68;;;25.50;99.90;;;;;;5015739;28;20057;-52
2023/09/08 11:16:33;;;;;;;;;;;25.50;99.90;;;;;;5029052;28;20078;-53
2023/09/08 11:19:04;;;;;;;10.73;7.03;;;25.60;99.90;;;;;;5028549;28;19921;-53
2023/09/08 11:21:34;;;;;;;9.07;7.40;;;25.60;99.90;;;;;;5027258;28;20042;-54
2023/09/08 11:24:06;;;;;;;11.85;7.22;;;25.60;99.90;;;;;;5024738;28;20038;-53
2023/09/08 11:26:34;;;;;;;9.35;6.57;;;25.50;99.90;;;;;;5025126;28;20042;-53
2023/09/08 11:29:02;;;;;;;10.18;7.55;;;25.50;99.90;;;;;;5018862;28;20048;-53
2023/09/08 11:31:29;;;;;;;9.38;7.95;;;25.50;99.90;;;;;;5030292;28;20042;-53
2023/09/08 11:33:56;;;;;;;;;;;25.60;99.90;;;;;;5014909;28;20060;-53
2023/09/08 11:36:23;;;;;;;11.80;7.90;;;25.60;99.90;;;;;;5002579;28;20133;-53
2023/09/08 11:38:49;;;;;;;13.00;8.20;;;25.80;99.90;;;;;;5023459;28;20129;-52
2023/09/08 11:41:16;;;;;;;10.75;7.38;;;25.80;99.90;;;;;;5021591;28;20044;-53
2023/09/08 11:43:43;;;;;;;;;;;25.80;99.90;;;;;;5023613;28;20055;-53
2023/09/08 11:46:11;;;;;;;11.02;8.45;;;25.90;99.90;;;;;;5028526;28;19921;-55
2023/09/08 11:48:38;;;;;;;10.82;8.05;;;25.90;99.90;;;;;;5018136;28;20089;-53
2023/09/08 11:51:07;;;;;;;11.45;8.18;;;26.00;99.90;;;;;;5021312;28;20049;-53
2023/09/08 11:53:36;;;;;;;9.75;8.35;;;26.00;99.90;;;;;;5018894;28;20073;-53
2023/09/08 11:56:04;;;;;;;9.00;7.80;;;26.10;99.90;;;;;;5013832;28;20054;-55
2023/09/08 11:58:31;;;;;;;10.85;8.48;;;26.00;99.90;;;;;;5017144;28;20048;-53
2023/09/08 12:00:58;;;;;;;9.63;8.52;;;25.90;99.90;;;;;;5021120;28;20125;-53
2023/09/08 12:03:25;;;;;;;;;;;25.90;99.90;;;;;;5006853;28;20107;-54
2023/09/08 12:05:53;;;;;;;9.38;8.05;;;26.00;99.90;;;;;;5032963;28;20440;-53
2023/09/08 12:08:20;;;;;;;10.52;8.18;;;26.20;99.90;;;;;;5032522;28;20045;-53
2023/09/08 12:10:46;;;;;;;12.45;8.45;;;26.30;99.90;;;;;;5024346;28;20045;-54
2023/09/08 12:13:20;;;;;;;10.73;8.30;;;26.20;99.90;;;;;;5023480;28;20050;-56
2023/09/08 12:15:47;;;;;;;11.45;8.65;;;26.20;99.90;;;;;;5018519;28;20544;-52
2023/09/08 12:18:16;;;;;;;;;;;26.10;99.90;;;;;;5032679;28;20520;-53
2023/09/08 12:20:44;;;;;;;14.30;8.60;;;26.10;99.90;;;;;;5023409;28;19925;-53
2023/09/08 12:23:21;;;;;;;13.45;8.23;;;26.00;99.90;;;;;;5022277;28;20129;-53
2023/09/08 12:25:50;;;;;;;11.65;8.93;;;26.00;99.90;;;;;;5023715;28;20042;-53
2023/09/08 12:28:20;;;;;;;12.38;8.27;;;25.90;99.90;;;;;;5023014;28;20087;-53
2023/09/08 12:30:49;;;;;;;13.75;9.63;;;26.00;99.90;;;;;;5024817;28;20140;-53
2023/09/08 12:33:19;;;;;;;13.18;9.40;;;26.10;99.90;;;;;;5023643;28;20053;-52
2023/09/08 12:35:48;;;;;;;14.40;9.00;;;26.20;99.90;;;;;;5017238;28;20426;-53
2023/09/08 12:38:15;;;;;;;11.80;9.10;;;26.30;99.90;;;;;;5031963;28;20449;-53
2023/09/08 12:40:42;;;;;;;11.25;8.55;;;26.20;99.90;;;;;;5023922;28;20041;-53
2023/09/08 12:43:08;;;;;;;15.43;9.48;;;26.20;99.90;;;;;;5024464;28;20042;-53
2023/09/08 12:45:57;;;;;;;15.20;8.70;;;26.30;99.90;;;;;;5012906;28;20049;-55
2023/09/08 12:48:24;;;;;;;11.95;9.27;;;26.30;99.90;;;;;;5032258;28;20457;-53